createdAt,value
2022-10-01T00:01:13.934Z,0.50
2022-10-01T00:03:41.990Z,0.50
2022-10-01T00:06:12.941Z,0.50
2022-10-01T00:08:42.018Z,0.50
2022-10-01T00:11:11.965Z,0.50
2022-10-01T00:13:39.547Z,0.60
2022-10-01T00:16:10.623Z,0.70
2022-10-01T00:18:39.790Z,0.50
2022-10-01T00:21:09.312Z,0.60
2022-10-01T00:23:37.576Z,0.60
2022-10-01T00:26:13.635Z,0.52
2022-10-01T00:28:41.373Z,0.60
2022-10-01T00:31:11.113Z,0.70
2022-10-01T00:33:39.414Z,0.70
2022-10-01T00:36:08.156Z,0.70
2022-10-01T00:38:36.463Z,0.70
2022-10-01T00:41:04.468Z,0.70
2022-10-01T00:43:33.870Z,0.80
2022-10-01T00:46:07.258Z,0.80
2022-10-01T00:48:44.457Z,0.80
2022-10-01T00:51:13.954Z,0.90
2022-10-01T00:53:43.030Z,0.90
2022-10-01T00:56:12.012Z,0.82
2022-10-01T00:58:39.529Z,0.90
2022-10-01T01:01:07.119Z,0.90
2022-10-01T01:03:35.985Z,1.00
2022-10-01T01:06:03.456Z,1.00
2022-10-01T01:08:30.928Z,1.00
2022-10-01T01:11:04.882Z,1.00
2022-10-01T01:13:38.242Z,1.10
2022-10-01T01:16:10.105Z,1.10
2022-10-01T01:18:46.186Z,1.00
2022-10-01T01:21:22.326Z,1.00
2022-10-01T01:24:24.253Z,1.02
2022-10-01T01:27:00.085Z,0.90
2022-10-01T01:29:36.714Z,1.00
2022-10-01T01:32:14.797Z,1.00
2022-10-01T01:34:46.349Z,0.90
2022-10-01T01:37:18.325Z,1.20
2022-10-01T01:39:51.707Z,1.10
2022-10-01T01:42:25.911Z,1.10
2022-10-01T01:44:58.235Z,1.20
2022-10-01T01:47:28.581Z,1.13
2022-10-01T01:50:01.023Z,1.10
2022-10-01T01:52:28.536Z,0.93
2022-10-01T01:54:57.403Z,1.10
2022-10-01T01:57:25.059Z,1.20
2022-10-01T01:59:55.015Z,1.13
2022-10-01T02:02:26.758Z,1.20
2022-10-01T02:04:56.337Z,1.50
2022-10-01T02:07:53.657Z,1.35
2022-10-01T02:10:37.219Z,1.50
2022-10-01T02:13:20.168Z,1.50
2022-10-01T02:16:01.256Z,1.30
2022-10-01T02:18:35.876Z,1.30
2022-10-01T02:21:12.490Z,1.30
2022-10-01T02:23:45.234Z,1.30
2022-10-01T02:26:18.595Z,1.38
2022-10-01T02:28:48.632Z,1.42
2022-10-01T02:31:20.689Z,1.50
2022-10-01T02:33:50.607Z,1.65
2022-10-01T02:36:20.999Z,1.40
2022-10-01T02:38:50.863Z,1.48
2022-10-01T02:41:24.086Z,1.58
2022-10-01T02:43:56.163Z,1.45
2022-10-01T02:46:31.116Z,1.40
2022-10-01T02:48:59.561Z,1.35
2022-10-01T02:51:32.831Z,1.27
2022-10-01T02:54:03.622Z,1.30
2022-10-01T02:56:49.507Z,1.30
2022-10-01T02:59:17.897Z,1.35
2022-10-01T03:01:46.712Z,1.38
2022-10-01T03:04:14.261Z,1.48
2022-10-01T03:06:41.800Z,1.35
2022-10-01T03:09:09.618Z,1.30
2022-10-01T03:11:37.339Z,1.25
2022-10-01T03:14:06.560Z,1.10
2022-10-01T03:16:34.200Z,1.20
2022-10-01T03:19:03.169Z,1.35
2022-10-01T03:21:30.978Z,1.38
2022-10-01T03:23:58.593Z,1.30
2022-10-01T03:26:26.065Z,1.30
2022-10-01T03:28:53.503Z,1.20
2022-10-01T03:31:21.077Z,1.30
2022-10-01T03:33:48.586Z,1.10
2022-10-01T03:36:17.448Z,1.10
2022-10-01T03:38:44.933Z,1.30
2022-10-01T03:41:12.408Z,1.20
2022-10-01T03:43:39.855Z,0.90
2022-10-01T03:46:07.364Z,1.08
2022-10-01T03:48:34.873Z,1.35
2022-10-01T03:51:02.327Z,1.30
2022-10-01T03:53:31.621Z,1.17
2022-10-01T03:55:59.331Z,1.33
2022-10-01T03:58:27.285Z,1.20
2022-10-01T04:00:55.887Z,1.20
2022-10-01T04:03:23.706Z,1.15
2022-10-01T04:05:51.191Z,1.33
2022-10-01T04:08:23.430Z,1.75
2022-10-01T04:10:53.087Z,1.60
2022-10-01T04:13:20.560Z,1.40
2022-10-01T04:15:48.758Z,1.80
2022-10-01T04:18:19.256Z,1.80
2022-10-01T04:20:46.695Z,1.67
2022-10-01T04:23:14.385Z,1.67
2022-10-01T04:25:42.804Z,1.60
2022-10-01T04:28:14.116Z,1.40
2022-10-01T04:30:43.435Z,1.60
2022-10-01T04:33:13.584Z,1.48
2022-10-01T04:35:41.284Z,1.40
2022-10-01T04:38:14.045Z,1.40
2022-10-01T04:40:41.740Z,1.50
2022-10-01T04:43:10.094Z,1.38
2022-10-01T04:45:39.076Z,1.40
2022-10-01T04:48:07.017Z,1.30
2022-10-01T04:50:34.570Z,1.40
2022-10-01T04:53:02.012Z,1.50
2022-10-01T04:55:29.617Z,1.60
2022-10-01T04:57:57.052Z,1.60
2022-10-01T05:00:26.400Z,1.90
2022-10-01T05:02:55.552Z,1.60
2022-10-01T05:05:27.116Z,1.50
2022-10-01T05:07:54.760Z,1.60
2022-10-01T05:10:24.852Z,1.60
2022-10-01T05:12:52.584Z,1.60
2022-10-01T05:15:20.407Z,1.60
2022-10-01T05:17:48.312Z,1.30
2022-10-01T05:20:20.249Z,1.20
2022-10-01T05:22:49.297Z,1.00
2022-10-01T05:25:17.392Z,1.00
2022-10-01T05:27:45.154Z,0.90
2022-10-01T05:30:14.530Z,0.90
2022-10-01T05:32:42.037Z,0.90
2022-10-01T05:35:09.992Z,1.00
2022-10-01T05:37:38.774Z,0.82
2022-10-01T05:40:07.060Z,0.80
2022-10-01T05:42:34.562Z,0.90
2022-10-01T05:45:02.005Z,0.70
2022-10-01T05:47:29.567Z,0.80
2022-10-01T05:49:57.012Z,0.80
2022-10-01T05:52:24.492Z,0.80
2022-10-01T05:54:53.272Z,0.73
2022-10-01T05:57:20.708Z,0.80
2022-10-01T05:59:48.138Z,0.82
2022-10-01T06:02:15.656Z,0.80
2022-10-01T06:04:43.219Z,0.90
2022-10-01T06:07:11.012Z,0.80
2022-10-01T06:09:38.487Z,0.93
2022-10-01T06:12:09.773Z,0.90
2022-10-01T06:14:37.257Z,1.00
2022-10-01T06:17:04.716Z,0.90
2022-10-01T06:19:32.170Z,0.80
2022-10-01T06:21:59.601Z,0.80
2022-10-01T06:24:27.084Z,0.80
2022-10-01T06:26:54.519Z,0.80
2022-10-01T06:29:23.305Z,0.90
2022-10-01T06:31:51.765Z,0.80
2022-10-01T06:34:19.283Z,0.80
2022-10-01T06:36:46.762Z,0.80
2022-10-01T06:39:14.584Z,0.88
2022-10-01T06:41:43.460Z,1.38
2022-10-01T06:44:11.223Z,0.73
2022-10-01T06:46:40.490Z,0.80
2022-10-01T06:49:08.089Z,0.90
2022-10-01T06:51:53.023Z,0.80
2022-10-01T06:54:20.474Z,0.90
2022-10-01T06:56:47.936Z,0.80
2022-10-01T06:59:15.395Z,0.82
2022-10-01T07:01:44.278Z,0.90
2022-10-01T07:04:12.995Z,1.00
2022-10-01T07:06:40.478Z,2.45
2022-10-01T07:09:07.931Z,1.60
2022-10-01T07:11:39.153Z,1.52
2022-10-01T07:14:06.707Z,1.30
2022-10-01T07:16:34.656Z,1.30
2022-10-01T07:19:03.479Z,1.20
2022-10-01T07:21:30.961Z,1.20
2022-10-01T07:23:58.432Z,1.05
2022-10-01T07:26:25.896Z,0.95
2022-10-01T07:28:55.064Z,1.00
2022-10-01T07:31:24.138Z,0.98
2022-10-01T07:33:58.144Z,0.90
2022-10-01T07:36:27.001Z,0.82
2022-10-01T07:38:56.527Z,0.85
2022-10-01T07:41:24.156Z,0.90
2022-10-01T07:43:51.603Z,0.80
2022-10-01T07:47:01.594Z,0.95
2022-10-01T07:49:29.452Z,0.80
2022-10-01T07:51:59.000Z,0.90
2022-10-01T07:54:26.964Z,0.90
2022-10-01T07:56:56.595Z,0.88
2022-10-01T07:59:24.494Z,0.90
2022-10-01T08:01:52.568Z,0.80
2022-10-01T08:04:38.464Z,0.80
2022-10-01T08:07:08.173Z,0.90
2022-10-01T08:09:35.771Z,0.80
2022-10-01T08:12:03.534Z,0.80
2022-10-01T08:14:31.247Z,0.70
2022-10-01T08:16:58.791Z,0.60
2022-10-01T08:19:26.374Z,0.75
2022-10-01T08:21:53.848Z,0.60
2022-10-01T08:24:22.644Z,0.40
2022-10-01T08:26:54.910Z,0.45
2022-10-01T08:29:22.525Z,0.60
2022-10-01T08:31:50.167Z,0.65
2022-10-01T08:34:17.852Z,0.60
2022-10-01T08:36:45.594Z,0.60
2022-10-01T08:39:13.457Z,0.57
2022-10-01T08:41:56.131Z,0.52
2022-10-01T08:44:29.156Z,0.50
2022-10-01T08:47:00.972Z,0.40
2022-10-01T08:49:33.644Z,0.55
2022-10-01T08:52:07.978Z,0.57
2022-10-01T08:57:12.928Z,0.50
2022-10-01T08:59:43.114Z,0.57
2022-10-01T09:02:20.274Z,0.52
2022-10-01T09:04:48.873Z,0.60
2022-10-01T09:07:40.725Z,0.60
2022-10-01T09:10:22.554Z,0.60
2022-10-01T09:13:04.379Z,0.50
2022-10-01T09:15:40.998Z,0.52
2022-10-01T09:18:19.230Z,0.50
2022-10-01T09:20:52.478Z,0.52
2022-10-01T09:23:27.126Z,0.63
2022-10-01T09:25:57.107Z,0.70
2022-10-01T09:28:30.127Z,0.60
2022-10-01T09:31:00.137Z,0.50
2022-10-01T09:33:33.052Z,0.50
2022-10-01T09:36:12.018Z,0.50
2022-10-01T09:38:41.776Z,0.50
2022-10-01T09:41:10.441Z,0.40
2022-10-01T09:43:41.144Z,0.50
2022-10-01T09:46:13.945Z,0.50
2022-10-01T09:48:50.142Z,1.05
2022-10-01T09:51:23.202Z,0.50
2022-10-01T09:54:04.313Z,0.50
2022-10-01T09:56:38.559Z,0.60
2022-10-01T10:01:45.177Z,0.32
2022-10-01T10:04:21.042Z,0.52
2022-10-01T10:06:48.746Z,0.40
2022-10-01T10:09:19.390Z,0.50
2022-10-01T10:11:47.140Z,0.40
2022-10-01T10:14:20.435Z,0.50
2022-10-01T10:16:49.648Z,0.57
2022-10-01T10:19:27.403Z,1.13
2022-10-01T10:21:57.475Z,0.60
2022-10-01T10:24:27.701Z,0.50
2022-10-01T10:26:58.376Z,0.30
2022-10-01T10:29:30.383Z,0.30
2022-10-01T10:31:59.102Z,0.30
2022-10-01T10:34:33.680Z,0.35
2022-10-01T10:37:05.958Z,0.40
2022-10-01T10:39:36.210Z,0.40
2022-10-01T10:42:05.974Z,0.52
2022-10-01T10:44:39.643Z,0.40
2022-10-01T10:47:11.256Z,0.40
2022-10-01T10:49:45.553Z,0.30
2022-10-01T10:57:22.095Z,0.32
2022-10-01T10:59:59.431Z,0.30
2022-10-01T11:02:29.957Z,0.30
2022-10-01T11:05:00.206Z,0.40
2022-10-01T11:07:28.616Z,0.40
2022-10-01T11:10:22.795Z,0.60
2022-10-01T11:13:24.027Z,0.60
2022-10-01T11:16:27.885Z,0.40
2022-10-01T11:19:09.435Z,0.40
2022-10-01T11:21:51.116Z,0.57
2022-10-01T11:24:45.879Z,0.65
2022-10-01T11:27:24.140Z,0.50
2022-10-01T11:30:03.083Z,0.50
2022-10-01T11:32:39.011Z,0.50
2022-10-01T11:35:26.085Z,0.50
2022-10-01T11:38:29.117Z,0.60
2022-10-01T11:41:04.209Z,0.50
2022-10-01T11:43:38.206Z,0.50
2022-10-01T11:46:15.464Z,0.50
2022-10-01T11:48:48.675Z,0.60
2022-10-01T11:51:20.491Z,0.60
2022-10-01T11:53:52.516Z,0.60
2022-10-01T11:56:42.589Z,0.65
2022-10-01T11:59:17.490Z,1.52
2022-10-01T12:01:50.581Z,0.57
2022-10-01T12:04:32.166Z,0.85
2022-10-01T12:07:14.888Z,0.50
2022-10-01T12:09:53.463Z,0.47
2022-10-01T12:12:25.988Z,0.60
2022-10-01T12:15:06.503Z,0.70
2022-10-01T12:17:40.198Z,0.40
2022-10-01T12:20:18.941Z,0.40
2022-10-01T12:22:49.569Z,0.40
2022-10-01T12:25:17.082Z,0.50
2022-10-01T12:27:53.572Z,0.50
2022-10-01T12:30:22.652Z,0.52
2022-10-01T12:33:22.751Z,0.60
2022-10-01T12:36:04.654Z,0.50
2022-10-01T12:38:50.212Z,0.50
2022-10-01T12:41:30.853Z,0.40
2022-10-01T12:44:20.790Z,0.70
2022-10-01T12:46:58.607Z,0.60
2022-10-01T12:49:32.731Z,0.47
2022-10-01T12:52:12.157Z,0.43
2022-10-01T12:54:56.467Z,0.50
2022-10-01T12:57:39.265Z,0.50
2022-10-01T13:00:12.451Z,0.50
2022-10-01T13:02:58.156Z,0.55
2022-10-01T13:05:32.373Z,0.70
2022-10-01T13:08:20.702Z,0.70
2022-10-01T13:10:59.931Z,0.75
2022-10-01T13:13:32.811Z,0.70
2022-10-01T13:16:09.477Z,0.80
2022-10-01T13:18:46.504Z,0.68
2022-10-01T13:21:23.176Z,0.80
2022-10-01T13:23:54.447Z,0.88
2022-10-01T13:26:30.483Z,0.80
2022-10-01T13:29:10.262Z,0.60
2022-10-01T13:31:41.310Z,0.70
2022-10-01T13:34:29.010Z,0.80
2022-10-01T13:36:56.513Z,0.60
2022-10-01T13:39:24.841Z,0.77
2022-10-01T13:41:58.452Z,0.77
2022-10-01T13:44:32.008Z,0.80
2022-10-01T13:47:03.828Z,0.80
2022-10-01T13:49:33.268Z,0.70
2022-10-01T13:52:02.885Z,0.70
2022-10-01T13:54:37.580Z,0.77
2022-10-01T13:57:10.725Z,0.80
2022-10-01T13:59:39.598Z,0.70
2022-10-01T14:02:29.228Z,0.80
2022-10-01T14:04:58.495Z,0.80
2022-10-01T14:07:31.255Z,0.80
2022-10-01T14:10:01.041Z,0.75
2022-10-01T14:12:50.891Z,0.80
2022-10-01T14:15:38.840Z,0.70
2022-10-01T14:18:10.510Z,0.80
2022-10-01T14:20:53.143Z,0.85
2022-10-01T14:23:26.431Z,0.70
2022-10-01T14:25:58.644Z,0.80
2022-10-01T14:28:53.614Z,0.80
2022-10-01T14:34:11.681Z,0.70
2022-10-01T14:36:44.915Z,0.70
2022-10-01T14:39:16.289Z,0.80
2022-10-01T14:41:44.464Z,0.80
2022-10-01T14:44:25.219Z,0.80
2022-10-01T14:46:54.184Z,0.88
2022-10-01T14:49:25.239Z,0.80
2022-10-01T14:51:55.976Z,0.90
2022-10-01T14:54:24.890Z,1.20
2022-10-01T14:56:53.380Z,1.10
2022-10-01T14:59:30.791Z,0.80
2022-10-01T15:02:00.557Z,0.80
2022-10-01T15:04:28.220Z,0.70
2022-10-01T15:07:03.744Z,0.70
2022-10-01T15:09:34.275Z,0.68
2022-10-01T15:12:03.236Z,0.70
2022-10-01T15:14:32.337Z,0.60
2022-10-01T15:17:05.114Z,0.60
2022-10-01T15:19:34.133Z,0.60
2022-10-01T15:22:03.187Z,0.65
2022-10-01T15:24:37.750Z,0.70
2022-10-01T15:27:07.051Z,0.70
2022-10-01T15:29:35.886Z,0.73
2022-10-01T15:32:04.554Z,0.70
2022-10-01T15:34:33.111Z,0.75
2022-10-01T15:37:01.877Z,0.60
2022-10-01T15:39:32.941Z,0.50
2022-10-01T15:42:04.184Z,0.50
2022-10-01T15:44:45.901Z,0.50
2022-10-01T15:47:24.319Z,0.60
2022-10-01T15:50:17.969Z,0.50
2022-10-01T15:53:02.962Z,0.50
2022-10-01T15:55:34.807Z,0.60
2022-10-01T15:58:14.919Z,0.60
2022-10-01T16:00:57.569Z,0.60
2022-10-01T16:03:27.546Z,0.60
2022-10-01T16:05:56.074Z,0.50
2022-10-01T16:08:32.813Z,0.50
2022-10-01T16:11:17.567Z,0.50
2022-10-01T16:13:46.625Z,0.50
2022-10-01T16:16:23.335Z,0.50
2022-10-01T16:18:54.345Z,0.50
2022-10-01T16:21:22.765Z,0.50
2022-10-01T16:23:52.888Z,0.40
2022-10-01T16:26:39.325Z,0.40
2022-10-01T16:29:25.424Z,0.70
2022-10-01T16:31:54.649Z,0.55
2022-10-01T16:34:22.156Z,0.65
2022-10-01T16:36:50.228Z,0.60
2022-10-01T16:39:17.686Z,0.60
2022-10-01T16:42:06.338Z,0.60
2022-10-01T16:44:40.543Z,0.52
2022-10-01T16:47:11.154Z,0.55
2022-10-01T16:49:38.661Z,0.52
2022-10-01T16:52:06.818Z,0.57
2022-10-01T16:54:35.125Z,0.60
2022-10-01T16:57:02.563Z,0.60
2022-10-01T16:59:32.482Z,0.63
2022-10-01T17:02:02.092Z,0.50
2022-10-01T17:04:33.974Z,0.50
2022-10-01T17:07:01.889Z,0.60
2022-10-01T17:09:29.363Z,0.52
2022-10-01T17:11:57.896Z,0.50
2022-10-01T17:14:25.590Z,0.50
2022-10-01T17:16:53.459Z,0.55
2022-10-01T17:19:21.816Z,0.60
2022-10-01T17:21:50.582Z,0.60
2022-10-01T17:24:18.046Z,0.50
2022-10-01T17:26:46.334Z,0.60
2022-10-01T17:29:14.164Z,0.50
2022-10-01T17:31:44.793Z,0.50
2022-10-01T17:34:12.955Z,0.40
2022-10-01T17:36:40.719Z,0.50
2022-10-01T17:39:09.527Z,0.40
2022-10-01T17:41:36.998Z,0.40
2022-10-01T17:44:04.523Z,0.40
2022-10-01T17:46:32.091Z,0.40
2022-10-01T17:48:59.724Z,0.40
2022-10-01T17:51:27.209Z,0.40
2022-10-01T17:53:56.281Z,0.40
2022-10-01T17:56:25.077Z,0.30
2022-10-01T17:58:54.831Z,0.40
2022-10-01T18:01:22.948Z,0.32
2022-10-01T18:03:55.507Z,0.40
2022-10-01T18:06:23.467Z,0.40
2022-10-01T18:08:55.653Z,0.40
2022-10-01T18:11:26.238Z,0.40
2022-10-01T18:13:53.847Z,0.40
2022-10-01T18:16:21.993Z,0.40
2022-10-01T18:21:43.118Z,0.30
2022-10-01T18:24:10.566Z,0.30
2022-10-01T18:26:39.654Z,0.32
2022-10-01T18:29:07.272Z,0.63
2022-10-01T18:31:37.147Z,0.32
2022-10-01T18:34:12.253Z,0.35
2022-10-01T18:36:48.252Z,0.40
2022-10-01T18:39:22.046Z,0.30
2022-10-01T18:41:51.392Z,0.40
2022-10-01T18:44:20.707Z,0.30
2022-10-01T18:46:59.370Z,0.38
2022-10-01T18:49:55.503Z,0.30
2022-10-01T18:52:33.719Z,0.40
2022-10-01T18:55:21.276Z,0.40
2022-10-01T18:58:07.064Z,0.32
2022-10-01T19:00:41.537Z,0.40
2022-10-01T19:03:33.098Z,0.30
2022-10-01T19:06:23.237Z,0.40
2022-10-01T19:09:02.166Z,0.40
2022-10-01T19:11:40.889Z,0.40
2022-10-01T19:14:36.535Z,0.30
2022-10-01T19:17:13.359Z,0.30
2022-10-01T19:19:53.192Z,0.30
2022-10-01T19:22:32.012Z,0.30
2022-10-01T19:25:11.450Z,0.32
2022-10-01T19:27:52.170Z,0.30
2022-10-01T19:30:21.220Z,0.30
2022-10-01T19:32:54.985Z,0.30
2022-10-01T19:35:24.082Z,0.40
2022-10-01T19:37:54.079Z,0.43
2022-10-01T19:40:28.155Z,0.35
2022-10-01T19:43:04.500Z,0.30
2022-10-01T19:45:43.545Z,0.30
2022-10-01T19:48:17.714Z,0.30
2022-10-01T19:50:51.352Z,0.40
2022-10-01T19:53:23.780Z,0.30
2022-10-01T19:55:53.547Z,0.35
2022-10-01T19:58:22.083Z,0.38
2022-10-01T20:00:55.822Z,0.40
2022-10-01T20:03:32.710Z,0.45
2022-10-01T20:06:04.676Z,0.40
2022-10-01T20:08:36.276Z,0.38
2022-10-01T20:11:13.906Z,0.50
2022-10-01T20:13:56.478Z,0.40
2022-10-01T20:16:29.476Z,0.40
2022-10-01T20:19:05.332Z,0.40
2022-10-01T20:21:45.511Z,0.50
2022-10-01T20:24:35.127Z,0.50
2022-10-01T20:27:13.123Z,0.47
2022-10-01T20:29:46.493Z,0.50
2022-10-01T20:32:20.488Z,0.50
2022-10-01T20:35:02.399Z,0.50
2022-10-01T20:37:46.465Z,0.40
2022-10-01T20:40:24.853Z,0.50
2022-10-01T20:42:57.970Z,0.47
2022-10-01T20:45:28.957Z,0.40
2022-10-01T20:48:03.536Z,0.40
2022-10-01T20:50:35.536Z,0.40
2022-10-01T20:53:16.015Z,0.40
2022-10-01T20:55:48.511Z,0.50
2022-10-01T20:58:21.022Z,0.50
2022-10-01T21:00:52.211Z,0.40
2022-10-01T21:03:27.739Z,0.40
2022-10-01T21:06:00.801Z,0.50
2022-10-01T21:08:42.079Z,0.40
2022-10-01T21:11:15.047Z,0.40
2022-10-01T21:13:49.967Z,0.43
2022-10-01T21:16:37.941Z,0.40
2022-10-01T21:19:20.376Z,0.40
2022-10-01T21:21:57.928Z,0.40
2022-10-01T21:24:44.143Z,0.40
2022-10-01T21:27:27.397Z,0.40
2022-10-01T21:30:05.588Z,0.30
2022-10-01T21:32:55.426Z,0.40
2022-10-01T21:35:34.553Z,0.50
2022-10-01T21:38:10.561Z,0.40
2022-10-01T21:40:48.864Z,0.43
2022-10-01T21:43:28.483Z,0.40
2022-10-01T21:46:05.589Z,0.40
2022-10-01T21:48:41.403Z,0.43
2022-10-01T21:51:17.168Z,0.40
2022-10-01T21:54:19.333Z,0.40
2022-10-01T21:57:13.688Z,0.40
2022-10-01T21:59:56.068Z,0.40
2022-10-01T22:02:35.499Z,0.45
2022-10-01T22:05:11.022Z,0.40
2022-10-01T22:07:47.964Z,0.40
2022-10-01T22:10:20.045Z,0.40
2022-10-01T22:12:51.479Z,0.40
2022-10-01T22:15:25.256Z,0.40
2022-10-01T22:17:55.198Z,0.40
2022-10-01T22:20:27.733Z,0.40
2022-10-01T22:23:02.215Z,0.47
2022-10-01T22:25:31.178Z,0.50
2022-10-01T22:28:03.616Z,0.47
2022-10-01T22:30:35.780Z,0.50
2022-10-01T22:33:09.964Z,0.40
2022-10-01T22:35:46.546Z,0.40
2022-10-01T22:38:21.718Z,0.45
2022-10-01T22:40:55.443Z,0.50
2022-10-01T22:43:22.940Z,0.50
2022-10-01T22:46:05.224Z,0.47
2022-10-01T22:48:49.789Z,0.50
2022-10-01T22:51:30.974Z,0.40
2022-10-01T22:54:14.871Z,0.60
2022-10-01T22:56:49.316Z,0.43
2022-10-01T22:59:24.072Z,0.40
2022-10-01T23:02:01.528Z,0.57
2022-10-01T23:04:46.283Z,0.45
2022-10-01T23:09:54.836Z,0.40
2022-10-01T23:12:29.799Z,0.40
2022-10-01T23:15:11.401Z,0.40
2022-10-01T23:17:45.029Z,0.50
2022-10-01T23:20:22.880Z,1.17
2022-10-01T23:23:07.559Z,0.43
2022-10-01T23:28:23.453Z,0.40
2022-10-01T23:31:01.625Z,0.50
2022-10-01T23:33:44.909Z,0.40
2022-10-01T23:36:24.167Z,0.40
2022-10-01T23:39:26.777Z,0.43
2022-10-01T23:41:59.264Z,0.50
2022-10-01T23:44:34.956Z,0.70
2022-10-01T23:47:08.519Z,0.47
2022-10-01T23:49:37.907Z,0.50
2022-10-01T23:52:12.702Z,0.50
2022-10-01T23:54:48.033Z,0.50
2022-10-01T23:57:18.179Z,0.50
2022-10-01T23:59:49.466Z,0.47
